createdAt,value
2023-03-05T00:01:33.366Z,5.50
2023-03-05T00:04:03.114Z,5.57
2023-03-05T00:06:34.227Z,6.23
2023-03-05T00:09:03.511Z,5.97
2023-03-05T00:11:33.780Z,5.30
2023-03-05T00:14:04.598Z,5.27
2023-03-05T00:16:33.538Z,5.53
2023-03-05T00:19:02.583Z,4.70
2023-03-05T00:21:33.899Z,4.93
2023-03-05T00:24:03.339Z,4.20
2023-03-05T00:26:34.485Z,5.37
2023-03-05T00:29:02.874Z,4.60
2023-03-05T00:31:32.489Z,5.07
2023-03-05T00:34:02.299Z,4.17
2023-03-05T00:36:30.831Z,4.50
2023-03-05T00:39:00.657Z,4.03
2023-03-05T00:41:29.475Z,4.23
2023-03-05T00:43:57.714Z,4.60
2023-03-05T00:46:27.531Z,4.87
2023-03-05T00:48:55.807Z,3.73
2023-03-05T00:51:25.028Z,4.03
2023-03-05T00:53:53.367Z,5.30
2023-03-05T00:56:23.568Z,4.30
2023-03-05T00:58:53.322Z,5.17
2023-03-05T01:01:21.771Z,4.67
2023-03-05T01:03:49.969Z,4.53
2023-03-05T01:06:18.381Z,4.20
2023-03-05T01:08:47.083Z,4.17
2023-03-05T01:11:15.629Z,3.73
2023-03-05T01:13:45.506Z,3.83
2023-03-05T01:16:13.874Z,4.13
2023-03-05T01:18:42.482Z,4.17
2023-03-05T01:21:11.186Z,4.23
2023-03-05T01:23:39.384Z,4.93
2023-03-05T01:26:08.624Z,4.20
2023-03-05T01:28:38.314Z,4.20
2023-03-05T01:31:11.051Z,4.50
2023-03-05T01:33:39.277Z,4.03
2023-03-05T01:36:13.469Z,3.77
2023-03-05T01:38:41.922Z,4.20
2023-03-05T01:41:10.901Z,3.67
2023-03-05T01:43:39.381Z,3.80
2023-03-05T01:46:35.752Z,3.70
2023-03-05T01:49:12.564Z,4.10
2023-03-05T01:51:46.765Z,4.17
2023-03-05T01:54:17.235Z,3.87
2023-03-05T01:56:47.123Z,3.60
2023-03-05T01:59:16.157Z,3.80
2023-03-05T02:01:49.675Z,3.57
2023-03-05T02:04:20.303Z,4.07
2023-03-05T02:06:49.920Z,3.83
2023-03-05T02:09:18.174Z,4.20
2023-03-05T02:11:46.297Z,3.70
2023-03-05T02:14:14.674Z,4.50
2023-03-05T02:16:43.750Z,3.93
2023-03-05T02:19:13.928Z,3.70
2023-03-05T02:21:46.389Z,4.00
2023-03-05T02:24:15.823Z,3.97
2023-03-05T02:26:45.081Z,3.30
2023-03-05T02:29:18.577Z,3.40
2023-03-05T02:31:47.046Z,3.43
2023-03-05T02:34:16.031Z,4.07
2023-03-05T02:36:45.715Z,4.17
2023-03-05T02:39:14.097Z,4.90
2023-03-05T02:41:42.225Z,4.80
2023-03-05T02:44:10.384Z,4.37
2023-03-05T02:46:38.518Z,4.90
2023-03-05T02:49:06.629Z,4.43
2023-03-05T02:51:34.777Z,4.27
2023-03-05T02:54:04.423Z,4.40
2023-03-05T02:56:32.810Z,4.20
2023-03-05T02:59:01.037Z,4.90
2023-03-05T03:01:29.862Z,4.00
2023-03-05T03:03:58.282Z,4.33
2023-03-05T03:06:26.475Z,4.20
2023-03-05T03:08:54.627Z,4.23
2023-03-05T03:11:24.169Z,4.20
2023-03-05T03:13:52.367Z,3.97
2023-03-05T03:16:20.581Z,4.20
2023-03-05T03:18:49.009Z,4.10
2023-03-05T03:21:22.743Z,3.83
2023-03-05T03:23:50.934Z,4.10
2023-03-05T03:26:19.694Z,4.73
2023-03-05T03:28:49.205Z,4.13
2023-03-05T03:31:17.550Z,3.83
2023-03-05T03:33:46.207Z,3.57
2023-03-05T03:36:14.566Z,3.70
2023-03-05T03:38:43.214Z,3.67
2023-03-05T03:41:11.449Z,3.57
2023-03-05T03:43:39.875Z,3.87
2023-03-05T03:46:09.686Z,3.60
2023-03-05T03:48:37.878Z,3.30
2023-03-05T03:51:07.504Z,3.50
2023-03-05T03:53:35.907Z,3.60
2023-03-05T03:56:04.564Z,3.30
2023-03-05T03:58:32.734Z,3.50
2023-03-05T04:01:01.089Z,3.53
2023-03-05T04:03:30.698Z,3.77
2023-03-05T04:05:58.953Z,3.30
2023-03-05T04:08:27.136Z,3.50
2023-03-05T04:10:55.221Z,3.50
2023-03-05T04:13:23.395Z,3.33
2023-03-05T04:15:51.643Z,3.00
2023-03-05T04:18:19.848Z,2.70
2023-03-05T04:20:49.622Z,3.50
2023-03-05T04:23:18.719Z,3.17
2023-03-05T04:25:46.865Z,3.57
2023-03-05T04:28:15.054Z,3.03
2023-03-05T04:30:43.278Z,3.57
2023-03-05T04:33:11.500Z,3.00
2023-03-05T04:35:39.849Z,2.90
2023-03-05T04:38:09.673Z,3.57
2023-03-05T04:40:38.573Z,3.57
2023-03-05T04:43:07.278Z,3.20
2023-03-05T04:45:35.765Z,3.27
2023-03-05T04:48:03.962Z,3.20
2023-03-05T04:50:32.068Z,3.03
2023-03-05T04:53:00.681Z,2.90
2023-03-05T04:55:30.349Z,3.23
2023-03-05T04:57:58.964Z,2.60
2023-03-05T05:00:27.425Z,3.20
2023-03-05T05:02:55.724Z,2.80
2023-03-05T05:05:25.449Z,4.37
2023-03-05T05:07:56.377Z,4.37
2023-03-05T05:10:24.912Z,7.30
2023-03-05T05:12:54.792Z,7.70
2023-03-05T05:15:23.382Z,8.30
2023-03-05T05:17:52.590Z,6.53
2023-03-05T05:20:21.171Z,4.87
2023-03-05T05:22:49.326Z,4.87
2023-03-05T05:25:17.639Z,4.93
2023-03-05T05:27:45.790Z,6.07
2023-03-05T05:30:15.783Z,6.17
2023-03-05T05:32:44.064Z,6.77
2023-03-05T05:35:12.637Z,5.53
2023-03-05T05:37:40.906Z,5.40
2023-03-05T05:40:10.688Z,6.40
2023-03-05T05:42:39.075Z,6.43
2023-03-05T05:45:08.376Z,9.33
2023-03-05T05:47:37.957Z,10.37
2023-03-05T05:50:07.812Z,7.87
2023-03-05T05:52:35.968Z,9.20
2023-03-05T05:55:04.485Z,8.27
2023-03-05T05:57:32.658Z,6.07
2023-03-05T06:00:00.798Z,6.50
2023-03-05T06:02:29.002Z,6.13
2023-03-05T06:04:58.610Z,4.13
2023-03-05T06:07:26.796Z,5.50
2023-03-05T06:09:54.967Z,5.80
2023-03-05T06:12:23.205Z,5.70
2023-03-05T06:14:51.373Z,3.97
2023-03-05T06:17:29.896Z,3.30
2023-03-05T06:20:01.147Z,2.73
2023-03-05T06:22:29.692Z,3.33
2023-03-05T06:24:57.909Z,3.40
2023-03-05T06:27:26.013Z,3.37
2023-03-05T06:29:56.744Z,2.93
2023-03-05T06:32:25.391Z,3.10
2023-03-05T06:34:53.798Z,3.90
2023-03-05T06:37:23.764Z,3.33
2023-03-05T06:39:51.992Z,3.20
2023-03-05T06:42:20.189Z,2.90
2023-03-05T06:44:48.501Z,3.13
2023-03-05T06:47:16.861Z,3.13
2023-03-05T06:49:45.148Z,2.90
2023-03-05T06:52:13.256Z,3.43
2023-03-05T06:54:42.821Z,3.47
2023-03-05T06:57:11.780Z,3.57
2023-03-05T06:59:40.011Z,3.23
2023-03-05T07:02:10.378Z,3.30
2023-03-05T07:04:38.655Z,3.20
2023-03-05T07:07:07.099Z,3.87
2023-03-05T07:09:35.281Z,3.10
2023-03-05T07:12:05.094Z,3.20
2023-03-05T07:14:33.306Z,2.87
2023-03-05T07:17:01.450Z,2.93
2023-03-05T07:19:29.721Z,2.90
2023-03-05T07:21:57.967Z,3.30
2023-03-05T07:24:29.863Z,9.57
2023-03-05T07:26:58.338Z,11.43
2023-03-05T07:29:28.972Z,4.47
2023-03-05T07:31:57.510Z,2.97
2023-03-05T07:34:27.190Z,2.87
2023-03-05T07:36:55.668Z,3.20
2023-03-05T07:39:24.052Z,3.00
2023-03-05T07:41:52.861Z,2.53
2023-03-05T07:44:21.295Z,2.70
2023-03-05T07:46:50.783Z,2.43
2023-03-05T07:49:19.017Z,2.60
2023-03-05T07:51:47.270Z,2.77
2023-03-05T07:54:15.421Z,3.67
2023-03-05T07:56:43.531Z,3.83
2023-03-05T07:59:13.532Z,4.17
2023-03-05T08:01:41.907Z,3.70
2023-03-05T08:04:11.691Z,3.83
2023-03-05T08:06:41.644Z,3.80
2023-03-05T08:09:09.768Z,3.50
2023-03-05T08:11:37.941Z,3.80
2023-03-05T08:14:06.088Z,3.53
2023-03-05T08:16:34.499Z,13.73
2023-03-05T08:19:03.110Z,4.83
2023-03-05T08:21:35.014Z,3.67
2023-03-05T08:24:04.498Z,3.50
2023-03-05T08:26:34.073Z,4.13
2023-03-05T08:29:02.679Z,4.37
2023-03-05T08:31:31.413Z,4.40
2023-03-05T08:34:01.557Z,4.57
2023-03-05T08:36:30.743Z,5.03
2023-03-05T08:39:00.875Z,4.40
2023-03-05T08:41:29.488Z,4.03
2023-03-05T08:43:57.658Z,3.43
2023-03-05T08:46:26.075Z,3.30
2023-03-05T08:48:54.437Z,3.23
2023-03-05T08:51:25.937Z,2.80
2023-03-05T08:53:55.506Z,2.77
2023-03-05T08:56:26.301Z,2.90
2023-03-05T08:58:54.494Z,3.23
2023-03-05T09:01:23.906Z,2.50
2023-03-05T09:03:52.212Z,140.23
2023-03-05T09:06:20.574Z,13.20
2023-03-05T09:08:48.715Z,4.43
2023-03-05T09:11:17.127Z,3.90
2023-03-05T09:13:46.750Z,3.93
2023-03-05T09:16:17.400Z,4.27
2023-03-05T09:18:45.963Z,4.43
2023-03-05T09:21:16.202Z,4.83
2023-03-05T09:23:45.085Z,4.97
2023-03-05T09:26:15.615Z,5.23
2023-03-05T09:28:43.945Z,5.80
2023-03-05T09:31:13.743Z,5.20
2023-03-05T09:33:42.100Z,5.40
2023-03-05T09:36:19.949Z,6.77
2023-03-05T09:38:48.186Z,6.30
2023-03-05T09:41:25.165Z,6.93
2023-03-05T09:44:03.478Z,7.93
2023-03-05T09:46:45.889Z,8.23
2023-03-05T09:49:22.276Z,7.97
2023-03-05T09:51:57.722Z,9.00
2023-03-05T09:54:31.610Z,9.27
2023-03-05T09:57:04.863Z,8.77
2023-03-05T09:59:39.260Z,8.00
2023-03-05T10:02:19.589Z,7.40
2023-03-05T10:04:52.026Z,7.27
2023-03-05T10:07:22.598Z,7.47
2023-03-05T10:09:56.693Z,8.67
2023-03-05T10:12:29.034Z,8.10
2023-03-05T10:14:57.531Z,8.67
2023-03-05T10:17:58.486Z,8.17
2023-03-05T10:20:43.347Z,9.23
2023-03-05T10:23:50.174Z,8.60
2023-03-05T10:26:42.621Z,8.10
2023-03-05T10:29:24.495Z,9.13
2023-03-05T10:32:05.380Z,10.33
2023-03-05T10:35:04.259Z,10.90
2023-03-05T10:38:11.809Z,10.17
2023-03-05T10:40:43.698Z,10.77
2023-03-05T10:43:23.269Z,11.70
2023-03-05T10:45:53.683Z,11.97
2023-03-05T10:48:32.772Z,11.40
2023-03-05T10:51:11.364Z,11.20
2023-03-05T10:53:49.857Z,12.40
2023-03-05T10:56:22.310Z,13.13
2023-03-05T10:58:52.647Z,12.07
2023-03-05T11:01:23.989Z,13.43
2023-03-05T11:03:58.531Z,13.80
2023-03-05T11:06:36.893Z,14.17
2023-03-05T11:09:20.456Z,14.70
2023-03-05T11:12:14.254Z,14.10
2023-03-05T11:14:45.258Z,14.13
2023-03-05T11:17:30.508Z,13.70
2023-03-05T11:20:19.330Z,14.70
2023-03-05T11:23:04.834Z,14.77
2023-03-05T11:25:35.164Z,16.20
2023-03-05T11:28:05.340Z,15.50
2023-03-05T11:30:35.958Z,15.17
2023-03-05T11:33:13.766Z,15.00
2023-03-05T11:35:44.274Z,15.53
2023-03-05T11:38:20.808Z,15.63
2023-03-05T11:40:49.946Z,15.83
2023-03-05T11:43:20.354Z,15.73
2023-03-05T11:45:52.472Z,17.30
2023-03-05T11:48:25.728Z,15.77
2023-03-05T11:50:57.767Z,16.70
2023-03-05T11:53:29.856Z,15.67
2023-03-05T11:56:04.439Z,16.93
2023-03-05T11:58:36.744Z,17.47
2023-03-05T12:01:12.662Z,17.40
2023-03-05T12:03:40.982Z,16.43
2023-03-05T12:06:18.677Z,15.50
2023-03-05T12:08:51.527Z,16.07
2023-03-05T12:11:21.748Z,16.93
2023-03-05T12:13:53.795Z,16.10
2023-03-05T12:16:30.644Z,16.50
2023-03-05T12:19:30.742Z,15.63
2023-03-05T12:21:59.670Z,15.90
2023-03-05T12:24:39.952Z,15.23
2023-03-05T12:27:15.005Z,18.10
2023-03-05T12:29:46.530Z,17.10
2023-03-05T12:33:03.377Z,16.73
2023-03-05T12:35:36.994Z,16.50
2023-03-05T12:38:31.680Z,17.33
2023-03-05T12:41:30.540Z,17.63
2023-03-05T12:44:23.790Z,16.90
2023-03-05T12:47:18.424Z,16.90
2023-03-05T12:49:48.635Z,18.70
2023-03-05T12:52:27.214Z,17.63
2023-03-05T12:55:24.787Z,17.37
2023-03-05T12:57:57.427Z,18.57
2023-03-05T13:00:33.862Z,19.17
2023-03-05T13:03:05.428Z,21.20
2023-03-05T13:05:35.482Z,22.20
2023-03-05T13:08:16.231Z,20.50
2023-03-05T13:10:51.380Z,19.73
2023-03-05T13:13:21.478Z,19.17
2023-03-05T13:15:52.903Z,19.57
2023-03-05T13:18:22.905Z,19.67
2023-03-05T13:21:02.745Z,19.60
2023-03-05T13:23:31.233Z,20.13
2023-03-05T13:26:03.562Z,20.07
2023-03-05T13:28:33.369Z,18.73
2023-03-05T13:31:05.049Z,20.33
2023-03-05T13:33:35.032Z,20.03
2023-03-05T13:36:04.018Z,18.53
2023-03-05T13:38:36.776Z,17.87
2023-03-05T13:41:08.725Z,17.70
2023-03-05T13:43:44.634Z,17.67
2023-03-05T13:46:15.046Z,17.73
2023-03-05T13:48:43.335Z,17.93
2023-03-05T13:51:11.994Z,22.50
2023-03-05T13:53:40.367Z,18.57
2023-03-05T13:56:14.547Z,19.27
2023-03-05T13:58:49.065Z,22.93
2023-03-05T14:01:27.476Z,18.67
2023-03-05T14:03:58.382Z,18.37
2023-03-05T14:06:29.225Z,17.73
2023-03-05T14:09:05.775Z,16.10
2023-03-05T14:11:34.693Z,22.17
2023-03-05T14:14:09.380Z,19.37
2023-03-05T14:16:39.061Z,19.37
2023-03-05T14:19:09.156Z,22.33
2023-03-05T14:21:48.491Z,22.23
2023-03-05T14:24:22.860Z,24.97
2023-03-05T14:26:53.775Z,33.50
2023-03-05T14:29:25.221Z,21.03
2023-03-05T14:31:57.403Z,27.03
2023-03-05T14:34:31.911Z,22.57
2023-03-05T14:37:03.711Z,22.77
2023-03-05T14:39:46.727Z,20.10
2023-03-05T14:42:30.400Z,21.03
2023-03-05T14:45:00.567Z,21.53
2023-03-05T14:47:30.330Z,22.27
2023-03-05T14:49:58.718Z,24.83
2023-03-05T14:52:28.245Z,25.57
2023-03-05T14:54:56.966Z,24.33
2023-03-05T14:57:28.049Z,26.93
2023-03-05T14:59:56.727Z,39.23
2023-03-05T15:02:26.680Z,20.33
2023-03-05T15:04:56.247Z,19.03
2023-03-05T15:07:28.038Z,22.30
2023-03-05T15:09:56.232Z,19.57
2023-03-05T15:12:25.378Z,20.70
2023-03-05T15:14:54.263Z,24.07
2023-03-05T15:17:24.935Z,19.70
2023-03-05T15:19:53.836Z,19.93
2023-03-05T15:22:23.465Z,16.90
2023-03-05T15:24:51.755Z,19.90
2023-03-05T15:27:20.009Z,21.13
2023-03-05T15:29:48.249Z,24.97
2023-03-05T15:32:16.446Z,23.00
2023-03-05T15:34:44.699Z,21.97
2023-03-05T15:37:13.355Z,21.40
2023-03-05T15:39:42.989Z,19.77
2023-03-05T15:42:11.133Z,19.07
2023-03-05T15:44:40.164Z,20.33
2023-03-05T15:47:08.301Z,18.23
2023-03-05T15:49:36.451Z,19.83
2023-03-05T15:52:04.776Z,18.40
2023-03-05T15:54:32.901Z,20.30
2023-03-05T15:57:02.463Z,19.93
2023-03-05T15:59:30.678Z,20.40
2023-03-05T16:01:58.975Z,18.73
2023-03-05T16:04:28.659Z,36.67
2023-03-05T16:06:58.973Z,56.50
2023-03-05T16:09:31.052Z,22.87
2023-03-05T16:11:59.930Z,21.03
2023-03-05T16:14:31.498Z,26.20
2023-03-05T16:17:03.304Z,30.73
2023-03-05T16:19:32.632Z,34.53
2023-03-05T16:22:00.941Z,27.77
2023-03-05T16:24:29.501Z,22.67
2023-03-05T16:26:57.813Z,22.80
2023-03-05T16:29:26.070Z,20.60
2023-03-05T16:31:56.081Z,22.23
2023-03-05T16:34:24.368Z,21.30
2023-03-05T16:36:53.232Z,23.00
2023-03-05T16:39:22.132Z,21.97
2023-03-05T16:41:52.747Z,19.60
2023-03-05T16:44:21.184Z,20.50
2023-03-05T16:46:53.250Z,20.20
2023-03-05T16:49:23.021Z,20.87
2023-03-05T16:51:51.242Z,19.90
2023-03-05T16:54:19.560Z,21.60
2023-03-05T16:56:47.773Z,19.70
2023-03-05T16:59:16.318Z,20.57
2023-03-05T17:01:44.903Z,19.33
2023-03-05T17:04:13.208Z,20.77
2023-03-05T17:06:42.744Z,20.10
2023-03-05T17:09:10.937Z,21.47
2023-03-05T17:11:39.230Z,20.20
2023-03-05T17:14:07.474Z,21.03
2023-03-05T17:16:35.806Z,22.63
2023-03-05T17:19:04.137Z,21.70
2023-03-05T17:21:32.205Z,24.80
2023-03-05T17:24:01.724Z,27.63
2023-03-05T17:26:32.712Z,28.77
2023-03-05T17:29:00.899Z,31.70
2023-03-05T17:31:29.211Z,31.93
2023-03-05T17:33:57.680Z,29.73
2023-03-05T17:36:26.361Z,29.57
2023-03-05T17:38:56.075Z,27.13
2023-03-05T17:41:26.101Z,28.57
2023-03-05T17:43:54.362Z,85.63
2023-03-05T17:46:22.661Z,91.60
2023-03-05T17:48:50.841Z,37.70
2023-03-05T17:51:19.072Z,28.70
2023-03-05T17:53:47.568Z,24.67
2023-03-05T17:56:20.411Z,23.90
2023-03-05T17:58:50.538Z,24.37
2023-03-05T18:01:24.894Z,21.00
2023-03-05T18:03:53.139Z,18.63
2023-03-05T18:06:21.402Z,19.33
2023-03-05T18:08:49.777Z,19.03
2023-03-05T18:11:18.126Z,19.00
2023-03-05T18:13:46.573Z,17.20
2023-03-05T18:16:17.136Z,10.93
2023-03-05T18:18:45.470Z,14.00
2023-03-05T18:21:14.003Z,7.37
2023-03-05T18:23:42.115Z,7.33
2023-03-05T18:26:10.384Z,8.30
2023-03-05T18:28:38.587Z,7.83
2023-03-05T18:31:07.068Z,6.90
2023-03-05T18:33:38.822Z,7.57
2023-03-05T18:36:09.789Z,10.40
2023-03-05T18:38:38.485Z,11.23
2023-03-05T18:41:08.053Z,12.80
2023-03-05T18:43:36.615Z,9.80
2023-03-05T18:46:06.030Z,6.80
2023-03-05T18:48:34.265Z,6.13
2023-03-05T18:51:04.274Z,5.47
2023-03-05T18:53:32.467Z,5.50
2023-03-05T18:56:01.654Z,5.17
2023-03-05T18:58:29.806Z,5.43
2023-03-05T19:00:58.242Z,4.70
2023-03-05T19:03:26.508Z,5.33
2023-03-05T19:05:54.869Z,4.73
2023-03-05T19:08:24.484Z,5.43
2023-03-05T19:10:52.700Z,7.73
2023-03-05T19:13:40.906Z,14.83
2023-03-05T19:16:11.483Z,5.57
2023-03-05T19:19:20.435Z,5.53
2023-03-05T19:21:53.423Z,5.27
2023-03-05T19:24:24.063Z,5.47
2023-03-05T19:26:55.373Z,5.60
2023-03-05T19:29:24.598Z,6.33
2023-03-05T19:31:52.800Z,6.20
2023-03-05T19:34:21.935Z,15.27
2023-03-05T19:36:50.189Z,7.00
2023-03-05T19:39:19.821Z,5.27
2023-03-05T19:41:49.499Z,5.70
2023-03-05T19:44:18.675Z,5.53
2023-03-05T19:46:48.520Z,5.37
2023-03-05T19:49:17.299Z,5.07
2023-03-05T19:51:46.373Z,5.50
2023-03-05T19:54:16.048Z,5.00
2023-03-05T19:56:45.494Z,4.60
2023-03-05T19:59:16.366Z,4.90
2023-03-05T20:01:45.092Z,5.47
2023-03-05T20:04:15.557Z,5.77
2023-03-05T20:06:43.712Z,5.53
2023-03-05T20:09:12.362Z,5.40
2023-03-05T20:11:41.072Z,6.50
2023-03-05T20:14:09.988Z,5.60
2023-03-05T20:16:39.800Z,5.50
2023-03-05T20:19:10.261Z,5.17
2023-03-05T20:21:41.277Z,5.73
2023-03-05T20:24:12.895Z,6.10
2023-03-05T20:26:42.225Z,5.90
2023-03-05T20:29:10.954Z,5.97
2023-03-05T20:31:41.380Z,5.50
2023-03-05T20:34:11.192Z,6.70
2023-03-05T20:36:40.164Z,6.37
2023-03-05T20:39:08.999Z,6.17
2023-03-05T20:41:39.321Z,5.70
2023-03-05T20:44:08.845Z,6.33
2023-03-05T20:46:57.258Z,5.80
2023-03-05T20:49:27.034Z,6.20
2023-03-05T20:51:55.208Z,5.93
2023-03-05T20:54:27.268Z,6.27
2023-03-05T20:56:55.555Z,5.53
2023-03-05T20:59:24.765Z,5.63
2023-03-05T21:01:53.036Z,5.67
2023-03-05T21:04:21.344Z,6.17
2023-03-05T21:06:54.106Z,5.93
2023-03-05T21:09:22.286Z,6.37
2023-03-05T21:11:50.474Z,5.77
2023-03-05T21:14:18.791Z,6.17
2023-03-05T21:16:47.064Z,6.13
2023-03-05T21:19:15.351Z,5.93
2023-03-05T21:21:45.731Z,6.10
2023-03-05T21:25:07.619Z,6.57
2023-03-05T21:27:37.279Z,6.03
2023-03-05T21:30:06.244Z,6.07
2023-03-05T21:32:34.561Z,6.10
2023-03-05T21:35:02.738Z,5.23
2023-03-05T21:37:30.962Z,5.43
2023-03-05T21:39:59.173Z,5.50
2023-03-05T21:42:27.416Z,4.97
2023-03-05T21:44:57.074Z,5.27
2023-03-05T21:47:25.232Z,5.87
2023-03-05T21:49:53.464Z,6.03
2023-03-05T21:52:22.439Z,6.17
2023-03-05T21:54:50.612Z,5.70
2023-03-05T21:57:18.853Z,5.67
2023-03-05T21:59:46.982Z,4.50
2023-03-05T22:02:18.333Z,5.20
2023-03-05T22:04:47.006Z,4.87
2023-03-05T22:07:16.520Z,5.63
2023-03-05T22:09:44.733Z,5.03
2023-03-05T22:13:12.517Z,5.33
2023-03-05T22:15:46.141Z,4.93
2023-03-05T22:18:16.660Z,4.60
2023-03-05T22:20:45.303Z,5.10
2023-03-05T22:23:13.751Z,5.23
2023-03-05T22:25:42.375Z,4.97
2023-03-05T22:28:11.182Z,5.00
2023-03-05T22:30:44.537Z,4.87
2023-03-05T22:33:12.910Z,4.70
2023-03-05T22:35:43.148Z,5.17
2023-03-05T22:38:12.138Z,4.50
2023-03-05T22:40:43.651Z,4.50
2023-03-05T22:43:12.361Z,4.50
2023-03-05T22:45:41.295Z,4.40
2023-03-05T22:48:12.850Z,5.80
2023-03-05T22:50:43.928Z,4.90
2023-03-05T22:53:12.641Z,4.63
2023-03-05T22:55:41.564Z,5.60
2023-03-05T22:58:10.097Z,6.43
2023-03-05T23:00:38.682Z,4.80
2023-03-05T23:03:07.448Z,4.67
2023-03-05T23:05:36.150Z,4.40
2023-03-05T23:08:06.278Z,3.90
2023-03-05T23:10:34.758Z,4.53
2023-03-05T23:13:03.542Z,4.67
2023-03-05T23:15:34.488Z,4.93
2023-03-05T23:18:03.283Z,4.97
2023-03-05T23:20:33.727Z,5.10
2023-03-05T23:23:02.068Z,5.17
2023-03-05T23:25:33.990Z,4.90
2023-03-05T23:28:04.693Z,4.83
2023-03-05T23:30:34.616Z,5.03
2023-03-05T23:33:06.010Z,4.97
2023-03-05T23:35:35.979Z,5.77
2023-03-05T23:38:06.339Z,5.30
2023-03-05T23:40:37.831Z,5.30
2023-03-05T23:43:06.439Z,5.77
2023-03-05T23:45:34.638Z,5.23
2023-03-05T23:48:02.877Z,5.20
2023-03-05T23:50:32.946Z,5.20
2023-03-05T23:53:02.427Z,5.13
2023-03-05T23:55:33.124Z,5.27
2023-03-05T23:58:03.166Z,6.10
